Time;durP1;ratioP1;P1;durP2;ratioP2;P2;SDS_P1;SDS_P2;PMS_P1;PMS_P2;Temp;Humidity;BMP_temperature;BMP_pressure;BME280_temperature;BME280_humidity;BME280_pressure;Samples;Min_cycle;Max_cycle;Signal;HPM_P1;HPM_P2
2023/06/26 00:00:16;;;;;;;11.38;5.05;;;22.10;62.50;;;;;;5001619;28;20106;-78
2023/06/26 00:02:41;;;;;;;9.07;4.78;;;22.00;62.90;;;;;;5000921;28;20046;-78
2023/06/26 00:05:07;;;;;;;10.82;4.75;;;22.00;62.90;;;;;;5002674;28;20110;-77
2023/06/26 00:07:36;;;;;;;11.10;5.43;;;21.80;63.50;;;;;;5001765;28;20030;-76
2023/06/26 00:10:05;;;;;;;10.32;4.85;;;21.80;63.50;;;;;;5001297;28;20124;-76
2023/06/26 00:12:31;;;;;;;8.98;4.60;;;21.80;63.90;;;;;;5003532;28;20505;-79
2023/06/26 00:14:57;;;;;;;10.98;5.32;;;21.80;64.40;;;;;;4996801;28;20235;-79
2023/06/26 00:17:23;;;;;;;11.35;4.93;;;21.70;65.00;;;;;;5010987;28;20045;-76
2023/06/26 00:19:51;;;;;;;9.40;4.63;;;21.60;65.60;;;;;;5005688;28;20021;-77
2023/06/26 00:22:18;;;;;;;10.90;4.82;;;21.60;65.80;;;;;;5012887;28;20124;-77
2023/06/26 00:24:47;;;;;;;9.25;4.75;;;21.60;66.30;;;;;;5006542;28;20037;-78
2023/06/26 00:27:12;;;;;;;12.13;5.07;;;21.50;66.80;;;;;;4995940;28;20475;-78
2023/06/26 00:29:38;;;;;;;10.35;4.93;;;21.40;67.40;;;;;;5007967;28;20093;-78
2023/06/26 00:32:04;;;;;;;10.57;5.32;;;21.40;67.60;;;;;;5002195;28;20076;-78
2023/06/26 00:34:30;;;;;;;9.70;5.18;;;21.40;68.00;;;;;;5010459;28;20474;-76
2023/06/26 00:36:56;;;;;;;12.52;5.15;;;21.50;67.80;;;;;;5005637;28;20051;-77
2023/06/26 00:39:22;;;;;;;10.68;4.97;;;21.40;68.10;;;;;;5003588;28;20034;-77
2023/06/26 00:41:48;;;;;;;11.95;5.35;;;21.30;68.30;;;;;;5011347;28;20041;-77
2023/06/26 00:44:14;;;;;;;12.63;5.53;;;21.30;68.70;;;;;;5013023;28;20087;-78
2023/06/26 00:46:39;;;;;;;10.68;4.97;;;21.30;69.10;;;;;;5002804;28;20045;-77
2023/06/26 00:49:05;;;;;;;13.48;5.85;;;21.30;69.40;;;;;;5015979;28;20040;-79
2023/06/26 00:51:31;;;;;;;14.98;4.78;;;21.30;69.50;;;;;;5002564;28;20579;-78
2023/06/26 00:53:57;;;;;;;16.08;5.15;;;21.20;69.90;;;;;;5011044;28;20053;-76
2023/06/26 00:56:23;;;;;;;11.52;5.53;;;21.10;70.30;;;;;;5007274;28;20105;-79
2023/06/26 00:58:49;;;;;;;12.27;5.70;;;21.10;70.70;;;;;;5009744;28;20032;-77
2023/06/26 01:01:17;;;;;;;12.43;5.20;;;21.00;70.80;;;;;;5013229;28;20398;-76
2023/06/26 01:03:45;;;;;;;13.02;5.50;;;21.00;71.00;;;;;;5007559;28;20021;-77
2023/06/26 01:06:13;;;;;;;11.13;5.10;;;21.00;71.20;;;;;;4999698;28;20200;-77
2023/06/26 01:08:41;;;;;;;11.77;5.10;;;21.00;71.50;;;;;;5010205;28;20033;-77
2023/06/26 01:11:07;;;;;;;13.68;5.57;;;20.90;71.80;;;;;;4998073;28;20022;-78
2023/06/26 01:13:34;;;;;;;14.15;5.53;;;20.90;72.10;;;;;;5003488;28;20113;-78
2023/06/26 01:16:01;;;;;;;14.15;5.97;;;20.80;72.10;;;;;;5006598;28;20025;-77
2023/06/26 01:18:27;;;;;;;14.48;6.13;;;20.80;72.50;;;;;;5007712;28;20518;-78
2023/06/26 01:20:53;;;;;;;11.23;5.60;;;20.90;72.30;;;;;;5002398;28;20073;-77
2023/06/26 01:24:04;;;;;;;13.48;6.45;;;20.90;72.50;;;;;;4982212;28;20566;-79
2023/06/26 01:26:35;;;;;;;13.85;6.13;;;20.80;73.00;;;;;;4980850;28;20058;-78
2023/06/26 01:29:02;;;;;;;14.45;6.47;;;20.80;72.80;;;;;;4976719;28;20046;-77
2023/06/26 01:31:30;;;;;;;13.68;6.78;;;20.80;73.10;;;;;;4982668;28;20045;-78
2023/06/26 01:33:58;;;;;;;16.42;7.07;;;20.60;73.50;;;;;;4984377;28;20032;-79
2023/06/26 01:36:24;;;;;;;15.68;7.32;;;20.60;74.20;;;;;;4983679;28;20061;-77
2023/06/26 01:38:50;;;;;;;17.05;7.50;;;20.60;74.20;;;;;;4979899;28;20097;-79
2023/06/26 01:41:17;;;;;;;16.48;7.15;;;20.60;74.30;;;;;;4972912;28;20042;-77
2023/06/26 01:44:23;;;;;;;15.45;7.03;;;20.60;74.40;;;;;;4982691;28;20026;-77
2023/06/26 01:46:51;;;;;;;;;;;20.50;74.60;;;;;;4975531;28;20067;-77
2023/06/26 01:49:24;;;;;;;16.35;7.63;;;20.50;74.70;;;;;;4978070;28;19910;-77
2023/06/26 01:52:19;;;;;;;17.58;7.40;;;20.50;74.70;;;;;;4989605;28;20030;-77
2023/06/26 01:54:59;;;;;;;;;;;20.50;75.00;;;;;;5004522;28;20026;-78
2023/06/26 01:57:27;;;;;;;16.58;7.65;;;20.30;75.40;;;;;;5008860;28;19917;-77
2023/06/26 01:59:55;;;;;;;17.30;6.85;;;20.20;75.80;;;;;;5004358;28;20042;-79
2023/06/26 02:02:23;;;;;;;18.35;7.25;;;20.10;76.20;;;;;;5015600;28;20038;-77
2023/06/26 02:04:49;;;;;;;16.55;7.15;;;20.10;76.20;;;;;;4993780;28;20117;-77
2023/06/26 02:07:15;;;;;;;18.80;7.20;;;20.00;76.50;;;;;;5009623;28;20112;-77
2023/06/26 02:09:41;;;;;;;18.80;8.25;;;19.90;76.70;;;;;;5000966;28;20701;-78
2023/06/26 02:12:07;;;;;;;15.23;7.15;;;19.80;77.10;;;;;;5009271;28;20026;-77
2023/06/26 02:14:32;;;;;;;18.30;7.75;;;19.80;77.30;;;;;;4999515;28;20037;-77
2023/06/26 02:17:00;;;;;;;20.02;7.32;;;19.80;77.20;;;;;;5009514;28;20375;-76
2023/06/26 02:19:27;;;;;;;19.00;7.38;;;19.70;77.30;;;;;;4998265;28;20109;-77
2023/06/26 02:21:53;;;;;;;17.23;7.45;;;19.70;77.60;;;;;;5008110;28;20067;-76
2023/06/26 02:24:19;;;;;;;17.42;7.57;;;19.60;77.60;;;;;;5008483;28;20029;-79
2023/06/26 02:26:45;;;;;;;17.88;7.68;;;19.60;77.80;;;;;;5017664;28;20453;-77
2023/06/26 02:29:11;;;;;;;19.48;6.78;;;19.60;77.50;;;;;;5003996;28;20085;-76
2023/06/26 02:31:37;;;;;;;18.65;7.15;;;19.50;77.80;;;;;;4995883;28;20038;-78
2023/06/26 02:34:03;;;;;;;19.15;7.35;;;19.40;77.90;;;;;;5006535;28;20037;-76
2023/06/26 02:36:29;;;;;;;17.10;7.15;;;19.40;78.00;;;;;;5006118;28;20037;-77
2023/06/26 02:38:55;;;;;;;17.70;7.18;;;19.30;78.00;;;;;;5003684;28;20036;-76
2023/06/26 02:41:21;;;;;;;22.05;7.45;;;19.30;78.10;;;;;;5004413;28;20033;-76
2023/06/26 02:43:46;;;;;;;14.52;6.38;;;19.20;78.30;;;;;;5004492;28;20065;-76
2023/06/26 02:46:12;;;;;;;20.60;7.45;;;19.20;78.00;;;;;;5004169;28;20045;-79
2023/06/26 02:48:38;;;;;;;20.73;6.90;;;19.20;78.10;;;;;;5012342;28;20033;-76
2023/06/26 02:51:03;;;;;;;16.88;6.82;;;19.10;77.90;;;;;;4988623;28;20030;-77
2023/06/26 02:53:31;;;;;;;19.58;6.70;;;19.10;77.90;;;;;;5012386;28;20029;-76
2023/06/26 02:55:56;;;;;;;21.00;7.38;;;19.10;77.90;;;;;;5004692;28;20025;-76
2023/06/26 02:58:22;;;;;;;18.83;7.25;;;19.10;77.70;;;;;;5008330;28;20033;-76
2023/06/26 03:00:48;;;;;;;15.35;6.60;;;19.00;78.20;;;;;;5006308;28;20089;-78
2023/06/26 03:03:13;;;;;;;20.15;7.13;;;19.00;77.90;;;;;;5006708;28;20030;-76
2023/06/26 03:05:39;;;;;;;18.00;7.20;;;18.90;77.80;;;;;;5006853;28;20037;-76
2023/06/26 03:08:05;;;;;;;19.58;6.95;;;18.80;77.80;;;;;;4996063;28;20167;-77
2023/06/26 03:10:30;;;;;;;20.25;6.88;;;18.80;77.90;;;;;;5009066;28;20029;-76
2023/06/26 03:12:56;;;;;;;15.95;6.75;;;18.80;78.00;;;;;;5005052;28;20382;-77
2023/06/26 03:15:22;;;;;;;17.65;6.90;;;18.70;78.20;;;;;;5003444;28;20045;-77
2023/06/26 03:17:47;;;;;;;17.25;6.68;;;18.60;78.10;;;;;;5005535;28;20049;-77
2023/06/26 03:20:15;;;;;;;19.58;6.68;;;18.60;77.80;;;;;;4997984;28;20344;-77
2023/06/26 03:22:41;;;;;;;18.33;6.55;;;18.60;77.60;;;;;;5004575;28;20057;-77
2023/06/26 03:25:06;;;;;;;14.75;6.20;;;18.60;77.40;;;;;;5002357;28;20471;-78
2023/06/26 03:27:32;;;;;;;18.77;6.15;;;18.60;77.00;;;;;;5006395;28;20482;-77
2023/06/26 03:29:58;;;;;;;17.58;6.25;;;18.60;76.90;;;;;;4999538;28;20100;-73
2023/06/26 03:32:23;;;;;;;15.77;6.47;;;18.60;76.60;;;;;;5004281;28;20516;-75
2023/06/26 03:34:49;;;;;;;15.65;5.75;;;18.60;76.70;;;;;;5000460;28;20026;-72
2023/06/26 03:37:15;;;;;;;18.98;6.25;;;18.60;76.20;;;;;;5000223;28;20442;-74
2023/06/26 03:39:40;;;;;;;15.30;5.95;;;18.50;76.00;;;;;;5007125;28;20113;-73
2023/06/26 03:42:06;;;;;;;15.15;7.32;;;18.50;75.60;;;;;;5001727;28;20034;-73
2023/06/26 03:44:32;;;;;;;17.33;6.10;;;18.50;75.40;;;;;;5012969;28;20033;-73
2023/06/26 03:46:58;;;;;;;18.08;5.50;;;18.50;75.10;;;;;;5002197;28;20239;-74
2023/06/26 03:49:23;;;;;;;17.40;5.75;;;18.50;74.50;;;;;;4999274;28;20561;-73
2023/06/26 03:51:49;;;;;;;17.02;5.43;;;18.40;74.50;;;;;;4987242;28;20045;-74
2023/06/26 03:54:15;;;;;;;16.80;5.90;;;18.40;74.20;;;;;;4992894;28;20034;-76
2023/06/26 03:56:40;;;;;;;13.82;5.50;;;18.40;73.90;;;;;;5000916;28;20048;-73
2023/06/26 03:59:06;;;;;;;15.45;5.72;;;18.30;73.40;;;;;;5000653;28;20467;-75
2023/06/26 04:01:32;;;;;;;14.50;5.47;;;18.40;72.70;;;;;;5001917;28;20121;-78
2023/06/26 04:03:57;;;;;;;15.30;5.82;;;18.30;72.20;;;;;;5004170;28;20117;-78
2023/06/26 04:06:23;;;;;;;13.18;4.82;;;18.30;72.00;;;;;;5007684;28;20054;-79
2023/06/26 04:08:49;;;;;;;14.45;4.78;;;18.40;71.50;;;;;;5011216;28;20052;-79
2023/06/26 04:11:14;;;;;;;14.25;4.82;;;18.30;71.80;;;;;;5010629;28;20042;-79
2023/06/26 04:13:40;;;;;;;14.48;4.85;;;18.40;71.30;;;;;;5003786;28;20049;-79
2023/06/26 04:16:06;;;;;;;15.23;5.93;;;18.40;71.00;;;;;;5016175;28;20620;-79
2023/06/26 04:18:32;;;;;;;17.50;4.60;;;18.40;70.80;;;;;;5008651;28;20041;-79
2023/06/26 04:21:24;;;;;;;13.48;4.20;;;18.40;70.60;;;;;;5015031;28;20036;-79
2023/06/26 04:23:50;;;;;;;11.15;4.10;;;18.40;70.30;;;;;;5003090;28;20041;-80
2023/06/26 04:26:16;;;;;;;10.98;4.30;;;18.50;69.90;;;;;;5005230;28;20071;-80
2023/06/26 04:28:43;;;;;;;9.55;3.65;;;18.50;69.80;;;;;;5002630;28;20116;-79
2023/06/26 04:31:08;;;;;;;11.18;3.88;;;18.60;69.30;;;;;;5002993;28;20036;-79
2023/06/26 04:33:36;;;;;;;12.57;3.90;;;18.60;68.80;;;;;;5004616;28;20448;-80
2023/06/26 04:36:05;;;;;;;14.50;3.70;;;18.70;68.20;;;;;;4992874;28;20026;-79
2023/06/26 04:38:33;;;;;;;16.25;4.53;;;18.70;68.30;;;;;;4974392;28;20022;-79
2023/06/26 04:41:00;;;;;;;10.30;3.22;;;18.70;68.20;;;;;;4976289;28;20141;-79
2023/06/26 04:43:26;;;;;;;11.77;3.67;;;18.70;68.30;;;;;;4973047;28;20023;-79
2023/06/26 04:45:51;;;;;;;11.65;3.60;;;18.70;67.70;;;;;;4976631;28;20602;-79
2023/06/26 04:48:17;;;;;;;9.85;2.92;;;18.70;68.20;;;;;;4981927;28;20030;-79
2023/06/26 04:50:43;;;;;;;9.70;3.42;;;18.80;67.80;;;;;;4976781;28;20034;-79
2023/06/26 04:53:09;;;;;;;11.07;3.05;;;18.70;67.60;;;;;;4974098;28;20027;-80
2023/06/26 04:55:35;;;;;;;10.88;3.78;;;18.60;68.00;;;;;;4977651;28;20503;-80
2023/06/26 04:58:00;;;;;;;9.80;3.70;;;18.70;67.90;;;;;;4979754;28;20139;-79
2023/06/26 05:00:26;;;;;;;12.00;4.00;;;18.70;67.80;;;;;;4983669;28;20117;-79
2023/06/26 05:03:00;;;;;;;11.95;4.65;;;18.70;67.50;;;;;;4976368;28;20045;-80
2023/06/26 05:05:27;;;;;;;11.02;4.47;;;18.80;67.40;;;;;;4980485;28;20096;-79
2023/06/26 05:07:54;;;;;;;11.82;3.75;;;18.80;67.40;;;;;;4975269;28;20035;-79
2023/06/26 05:10:20;;;;;;;11.50;3.38;;;19.10;66.50;;;;;;4982163;28;20034;-79
2023/06/26 05:12:45;;;;;;;9.10;3.28;;;20.30;62.80;;;;;;5004843;28;20482;-79
2023/06/26 05:15:11;;;;;;;11.65;2.55;;;21.40;58.80;;;;;;5006709;28;20044;-79
2023/06/26 05:17:36;;;;;;;10.43;2.53;;;22.00;57.80;;;;;;5018714;28;20105;-79
2023/06/26 05:20:03;;;;;;;14.32;3.45;;;22.60;55.30;;;;;;5006404;28;20495;-79
2023/06/26 05:22:29;;;;;;;10.75;2.35;;;23.10;54.00;;;;;;5017984;28;20030;-79
2023/06/26 05:24:58;;;;;;;9.23;2.63;;;23.70;52.10;;;;;;5007953;28;20048;-79
2023/06/26 05:27:25;;;;;;;10.77;2.42;;;23.60;52.10;;;;;;4999372;28;20045;-81
2023/06/26 05:29:51;;;;;;;13.18;3.08;;;23.90;52.40;;;;;;5012192;28;20021;-80
2023/06/26 05:32:17;;;;;;;10.13;2.28;;;24.60;49.50;;;;;;5006433;28;20176;-80
2023/06/26 05:34:50;;;;;;;9.82;2.33;;;24.50;50.40;;;;;;5011823;28;20065;-79
2023/06/26 05:37:21;;;;;;;9.43;2.50;;;24.70;49.30;;;;;;4987792;28;20051;-79
2023/06/26 05:39:47;;;;;;;9.20;2.25;;;25.10;48.60;;;;;;4973314;28;20031;-80
2023/06/26 05:42:13;;;;;;;13.50;2.55;;;24.90;48.50;;;;;;4976170;28;20031;-80
2023/06/26 05:44:39;;;;;;;8.18;2.50;;;24.50;49.90;;;;;;4980918;28;20507;-79
2023/06/26 05:47:05;;;;;;;8.40;2.40;;;24.80;49.60;;;;;;4978530;28;20110;-79
2023/06/26 05:49:30;;;;;;;9.07;2.30;;;24.50;50.10;;;;;;4975562;28;20034;-80
2023/06/26 05:51:56;;;;;;;7.85;2.33;;;23.60;51.80;;;;;;4981144;28;20053;-78
2023/06/26 05:54:24;;;;;;;8.50;2.40;;;23.00;53.60;;;;;;4985483;28;20030;-79
2023/06/26 05:56:55;;;;;;;8.57;2.33;;;22.40;55.00;;;;;;4975932;28;20495;-79
2023/06/26 05:59:23;;;;;;;9.98;2.42;;;21.80;57.00;;;;;;4980344;28;20459;-78
2023/06/26 06:01:48;;;;;;;12.20;2.88;;;21.60;58.40;;;;;;4976378;28;20058;-75
2023/06/26 06:04:14;;;;;;;8.63;2.38;;;21.10;59.90;;;;;;4978235;28;20034;-75
2023/06/26 06:06:39;;;;;;;10.00;2.67;;;20.90;60.90;;;;;;4970370;28;20039;-75
2023/06/26 06:09:05;;;;;;;11.73;2.67;;;20.80;61.40;;;;;;4976289;28;20084;-75
2023/06/26 06:11:31;;;;;;;9.55;2.65;;;20.70;61.40;;;;;;4983658;28;20030;-76
2023/06/26 06:13:58;;;;;;;14.60;3.35;;;20.70;61.80;;;;;;5004122;28;20046;-80
2023/06/26 06:16:24;;;;;;;8.60;2.33;;;20.80;61.80;;;;;;5003712;28;20514;-77
2023/06/26 06:18:50;;;;;;;9.48;2.40;;;20.70;62.20;;;;;;5018973;28;20075;-78
2023/06/26 06:21:15;;;;;;;7.85;2.92;;;20.80;62.30;;;;;;5003391;28;20410;-73
2023/06/26 06:23:41;;;;;;;11.20;2.85;;;20.60;62.50;;;;;;5009635;28;20025;-76
2023/06/26 06:26:07;;;;;;;8.75;2.65;;;20.30;63.40;;;;;;5012208;28;20122;-76
2023/06/26 06:28:32;;;;;;;11.27;2.80;;;20.50;63.20;;;;;;5004194;28;20034;-76
2023/06/26 06:30:58;;;;;;;10.93;2.75;;;20.60;63.00;;;;;;5003490;28;20435;-76
2023/06/26 06:33:23;;;;;;;10.20;2.90;;;20.60;62.30;;;;;;5006905;28;20500;-76
2023/06/26 06:35:49;;;;;;;10.10;2.83;;;20.30;62.60;;;;;;5009290;28;20038;-76
2023/06/26 06:38:15;;;;;;;10.60;2.58;;;20.40;62.90;;;;;;5011842;28;20052;-77
2023/06/26 06:40:40;;;;;;;10.98;2.60;;;20.60;63.00;;;;;;5006930;28;20041;-78
2023/06/26 06:43:07;;;;;;;11.98;3.05;;;20.70;62.50;;;;;;5005610;28;20041;-78
2023/06/26 06:45:32;;;;;;;8.15;2.30;;;20.60;62.30;;;;;;5009946;28;20018;-78
2023/06/26 06:47:58;;;;;;;11.10;2.95;;;20.60;61.90;;;;;;5009113;28;20073;-77
2023/06/26 06:50:23;;;;;;;8.85;2.55;;;20.60;62.30;;;;;;5010847;28;20025;-78
2023/06/26 06:52:49;;;;;;;7.72;2.83;;;20.90;61.30;;;;;;5003865;28;20042;-78
2023/06/26 06:55:15;;;;;;;8.45;2.65;;;21.00;60.80;;;;;;5003906;28;20025;-78
2023/06/26 06:57:40;;;;;;;7.40;2.22;;;21.10;61.00;;;;;;5002168;28;20058;-79
2023/06/26 07:00:11;;;;;;;10.38;2.67;;;21.00;60.70;;;;;;5002445;28;20044;-80
2023/06/26 07:02:38;;;;;;;7.78;2.42;;;21.00;60.70;;;;;;4999323;28;20145;-78
2023/06/26 07:05:06;;;;;;;10.90;2.90;;;21.30;61.10;;;;;;5005063;28;20103;-78
2023/06/26 07:07:34;;;;;;;9.50;2.88;;;21.50;60.10;;;;;;4998402;28;20038;-78
2023/06/26 07:10:03;;;;;;;8.55;2.50;;;21.50;59.70;;;;;;5006721;28;20068;-79
2023/06/26 07:12:29;;;;;;;9.63;2.47;;;21.30;59.50;;;;;;5005430;28;20049;-79
2023/06/26 07:14:56;;;;;;;8.50;2.35;;;21.30;59.50;;;;;;4995918;28;20495;-78
2023/06/26 07:17:22;;;;;;;8.75;2.58;;;21.60;60.10;;;;;;5009868;28;20079;-79
2023/06/26 07:19:49;;;;;;;8.95;2.30;;;21.80;59.80;;;;;;5002511;28;20109;-78
2023/06/26 07:22:15;;;;;;;9.80;2.35;;;21.80;59.00;;;;;;5005785;28;20045;-78
2023/06/26 07:24:41;;;;;;;8.63;2.40;;;22.00;58.50;;;;;;5007216;28;20048;-78
2023/06/26 07:27:07;;;;;;;7.38;2.40;;;21.90;58.30;;;;;;4997669;28;20038;-78
2023/06/26 07:29:33;;;;;;;7.65;2.38;;;22.00;58.50;;;;;;5004049;28;20065;-78
2023/06/26 07:31:59;;;;;;;8.68;2.88;;;22.10;58.80;;;;;;5003443;28;20453;-78
2023/06/26 07:34:25;;;;;;;8.70;2.78;;;22.30;57.40;;;;;;5003496;28;20044;-79
2023/06/26 07:36:51;;;;;;;8.55;2.65;;;22.40;58.20;;;;;;5013777;28;20033;-81
2023/06/26 07:39:16;;;;;;;8.50;2.83;;;22.40;57.40;;;;;;5014762;28;20028;-80
2023/06/26 07:41:42;;;;;;;9.00;2.60;;;22.30;57.50;;;;;;5010688;28;20116;-78
2023/06/26 07:44:08;;;;;;;9.27;2.47;;;22.10;57.80;;;;;;5006103;28;20096;-80
2023/06/26 07:46:34;;;;;;;7.18;2.42;;;22.50;57.40;;;;;;5009579;28;20426;-80
2023/06/26 07:49:00;;;;;;;8.02;2.78;;;22.70;57.80;;;;;;5003842;28;20041;-80
2023/06/26 07:51:25;;;;;;;10.77;2.75;;;22.70;56.30;;;;;;5005883;28;20041;-79
2023/06/26 07:53:51;;;;;;;8.82;2.60;;;22.90;55.40;;;;;;5001797;28;20030;-79
2023/06/26 07:56:17;;;;;;;8.25;2.88;;;22.60;56.20;;;;;;4999724;28;20233;-81
2023/06/26 07:58:43;;;;;;;8.40;2.50;;;22.20;55.80;;;;;;5004975;28;20030;-79
2023/06/26 08:01:09;;;;;;;8.20;2.53;;;22.40;56.40;;;;;;5000993;28;20865;-80
2023/06/26 08:03:35;;;;;;;7.63;2.75;;;22.50;56.60;;;;;;5004973;28;20030;-80
2023/06/26 08:06:00;;;;;;;7.78;2.60;;;22.50;56.30;;;;;;5000656;28;20463;-80
2023/06/26 08:08:26;;;;;;;9.40;3.00;;;22.40;56.40;;;;;;5003190;28;20034;-79
2023/06/26 08:10:52;;;;;;;11.05;2.92;;;22.40;55.70;;;;;;5002239;28;20421;-80
2023/06/26 08:13:18;;;;;;;7.72;2.58;;;22.30;55.70;;;;;;4999616;28;20029;-80
2023/06/26 08:15:44;;;;;;;7.47;2.33;;;22.50;55.00;;;;;;5001539;28;20109;-80
2023/06/26 08:18:10;;;;;;;8.48;2.60;;;22.90;55.20;;;;;;4998770;28;20889;-79
2023/06/26 08:20:36;;;;;;;9.35;2.70;;;22.90;55.20;;;;;;5003346;28;20096;-80
2023/06/26 08:23:03;;;;;;;9.82;3.25;;;22.60;54.40;;;;;;4986209;28;20031;-79
2023/06/26 08:25:29;;;;;;;9.43;2.85;;;22.70;54.10;;;;;;4986006;28;20160;-79
2023/06/26 08:27:55;;;;;;;8.20;2.30;;;23.00;55.10;;;;;;4985492;28;20064;-79
2023/06/26 08:30:21;;;;;;;11.07;3.00;;;23.30;54.20;;;;;;4985643;28;20037;-80
2023/06/26 08:32:47;;;;;;;9.70;3.08;;;23.50;53.70;;;;;;4991990;28;20483;-78
2023/06/26 08:35:12;;;;;;;9.20;2.85;;;22.80;53.90;;;;;;4987030;28;20019;-78
2023/06/26 08:37:38;;;;;;;10.80;2.90;;;22.70;54.30;;;;;;4984529;28;20048;-78
2023/06/26 08:40:05;;;;;;;9.95;3.30;;;22.90;54.10;;;;;;4988500;28;20109;-78
2023/06/26 08:42:30;;;;;;;8.00;3.20;;;23.30;53.30;;;;;;4980838;28;20597;-77
2023/06/26 08:44:56;;;;;;;7.88;2.75;;;23.00;53.30;;;;;;4989853;28;20026;-79
2023/06/26 08:47:22;;;;;;;9.25;2.90;;;23.20;53.40;;;;;;4986089;28;20034;-79
2023/06/26 08:50:01;;;;;;;11.20;3.40;;;23.70;52.10;;;;;;4988427;28;20403;-80
2023/06/26 08:53:04;;;;;;;9.02;3.10;;;23.70;51.40;;;;;;4988162;28;20034;-83
2023/06/26 08:55:33;;;;;;;10.05;3.10;;;23.80;51.20;;;;;;4984898;28;20050;-79
2023/06/26 08:57:59;;;;;;;7.47;3.20;;;24.20;48.10;;;;;;4987066;28;20079;-78
2023/06/26 09:00:25;;;;;;;9.70;3.53;;;24.20;49.00;;;;;;4983846;28;20035;-79
2023/06/26 09:02:51;;;;;;;12.70;3.40;;;24.00;50.60;;;;;;4981946;28;20039;-78
2023/06/26 09:05:17;;;;;;;6.68;3.35;;;24.10;49.60;;;;;;4988062;28;20026;-80
2023/06/26 09:07:42;;;;;;;8.25;3.50;;;24.30;49.40;;;;;;4986678;28;20048;-78
2023/06/26 09:10:09;;;;;;;9.23;2.92;;;23.90;49.30;;;;;;4980489;28;20680;-77
2023/06/26 09:12:36;;;;;;;10.75;3.00;;;23.80;50.40;;;;;;4992458;28;20045;-79
2023/06/26 09:15:03;;;;;;;9.85;3.50;;;23.70;49.90;;;;;;4983873;28;20030;-77
2023/06/26 09:17:42;;;;;;;13.43;4.10;;;23.10;51.90;;;;;;4983372;28;20601;-77
2023/06/26 09:20:10;;;;;;;8.55;3.35;;;22.90;53.50;;;;;;4989207;28;20033;-80
2023/06/26 09:22:40;;;;;;;7.13;2.80;;;22.90;53.30;;;;;;4989583;28;20080;-79
2023/06/26 09:25:07;;;;;;;7.93;2.70;;;23.20;52.10;;;;;;4985522;28;20033;-78
2023/06/26 09:27:34;;;;;;;6.55;2.88;;;23.60;51.00;;;;;;4986062;28;20118;-79
2023/06/26 09:29:59;;;;;;;10.57;2.80;;;24.00;50.70;;;;;;4983599;28;20065;-79
2023/06/26 09:32:25;;;;;;;11.30;3.00;;;24.00;49.10;;;;;;4984350;28;20417;-80
2023/06/26 09:34:53;;;;;;;8.55;2.85;;;24.10;49.90;;;;;;4986324;28;20045;-80
2023/06/26 09:37:19;;;;;;;6.50;2.50;;;23.90;48.60;;;;;;4985585;28;20049;-80
2023/06/26 09:39:45;;;;;;;6.53;2.60;;;23.80;48.20;;;;;;4990258;28;20096;-80
2023/06/26 09:42:14;;;;;;;8.68;2.72;;;24.40;47.70;;;;;;4993437;28;20465;-79
2023/06/26 09:44:47;;;;;;;7.75;2.80;;;24.30;47.70;;;;;;4993453;28;20422;-77
2023/06/26 09:47:16;;;;;;;7.75;2.47;;;24.50;45.20;;;;;;4997115;28;20037;-79
2023/06/26 09:49:42;;;;;;;7.65;2.40;;;24.30;45.70;;;;;;5000958;28;20072;-79
2023/06/26 09:52:09;;;;;;;6.68;2.53;;;24.60;47.00;;;;;;5000731;28;20172;-80
2023/06/26 09:54:35;;;;;;;7.38;2.20;;;24.50;45.00;;;;;;5001152;28;20041;-83
2023/06/26 09:57:18;;;;;;;7.40;2.13;;;24.70;45.00;;;;;;5002163;28;20034;-80
2023/06/26 09:59:45;;;;;;;8.32;2.33;;;25.40;45.10;;;;;;5002804;28;20136;-78
2023/06/26 10:02:11;;;;;;;8.98;2.58;;;24.60;44.10;;;;;;4997968;28;20038;-79
2023/06/26 10:04:38;;;;;;;9.18;2.42;;;24.40;45.50;;;;;;5001732;28;20084;-80
2023/06/26 10:07:13;;;;;;;6.82;2.13;;;24.70;47.10;;;;;;4997594;28;20037;-79
2023/06/26 10:09:42;;;;;;;7.53;2.00;;;25.20;43.70;;;;;;4998167;28;20041;-79
2023/06/26 10:12:30;;;;;;;6.95;2.10;;;25.30;43.40;;;;;;4999639;28;20170;-80
2023/06/26 10:14:57;;;;;;;7.32;2.30;;;25.60;43.60;;;;;;4998752;28;20569;-80
2023/06/26 10:17:27;;;;;;;6.93;2.17;;;25.30;43.10;;;;;;5001842;28;20034;-80
2023/06/26 10:19:56;;;;;;;4.97;1.95;;;25.20;43.60;;;;;;5001030;28;20018;-80
2023/06/26 10:22:27;;;;;;;6.25;2.08;;;25.00;43.30;;;;;;4998064;28;20714;-78
2023/06/26 10:24:58;;;;;;;6.80;2.03;;;25.00;43.30;;;;;;5001198;28;20462;-78
2023/06/26 10:27:30;;;;;;;4.90;1.95;;;25.30;40.90;;;;;;5000611;28;20042;-78
2023/06/26 10:30:02;;;;;;;7.22;2.28;;;25.20;41.20;;;;;;5004049;28;20030;-79
2023/06/26 10:32:29;;;;;;;8.05;2.10;;;25.50;41.10;;;;;;4993959;28;20042;-79
2023/06/26 10:34:55;;;;;;;8.30;1.90;;;25.60;41.30;;;;;;4999143;28;20029;-78
2023/06/26 10:37:40;;;;;;;9.18;2.15;;;25.60;40.60;;;;;;4990027;28;20076;-80
2023/06/26 10:40:06;;;;;;;6.63;2.20;;;25.20;41.20;;;;;;4977148;28;20039;-80
2023/06/26 10:42:37;;;;;;;7.82;2.20;;;24.80;42.40;;;;;;4980959;28;20378;-81
2023/06/26 10:45:17;;;;;;;6.85;2.10;;;24.70;42.20;;;;;;4988407;28;20099;-80
2023/06/26 10:47:47;;;;;;;5.78;1.90;;;25.00;43.40;;;;;;4988784;28;20062;-81
2023/06/26 10:50:23;;;;;;;4.72;1.85;;;25.60;41.20;;;;;;4992404;28;20189;-82
2023/06/26 10:53:20;;;;;;;5.05;1.80;;;26.30;40.40;;;;;;4987394;28;20447;-81
2023/06/26 10:55:58;;;;;;;5.10;2.08;;;26.60;38.60;;;;;;4998183;28;20207;-80
2023/06/26 10:58:34;;;;;;;4.45;1.58;;;26.60;38.70;;;;;;5007670;28;20129;-81
2023/06/26 11:01:21;;;;;;;7.07;1.90;;;26.10;39.40;;;;;;5002821;28;20045;-81
2023/06/26 11:04:01;;;;;;;5.22;1.70;;;25.60;39.90;;;;;;4988210;28;20121;-81
2023/06/26 11:06:27;;;;;;;7.13;2.00;;;25.90;40.40;;;;;;4988775;28;20038;-81
2023/06/26 11:08:59;;;;;;;5.50;2.00;;;26.60;39.40;;;;;;4989352;28;20046;-77
2023/06/26 11:11:51;;;;;;;4.40;1.60;;;27.00;37.40;;;;;;4989679;28;20038;-79
2023/06/26 11:14:18;;;;;;;7.10;1.88;;;27.30;35.80;;;;;;4992156;28;20054;-79
2023/06/26 11:16:44;;;;;;;5.80;1.58;;;27.10;36.50;;;;;;4988496;28;20054;-79
2023/06/26 11:19:11;;;;;;;4.65;1.90;;;27.10;36.60;;;;;;4989208;28;20034;-79
2023/06/26 11:21:40;;;;;;;5.35;1.95;;;26.50;38.00;;;;;;4986817;28;20048;-79
2023/06/26 11:24:12;;;;;;;6.50;1.95;;;26.40;38.00;;;;;;4991185;28;20037;-80
2023/06/26 11:26:39;;;;;;;5.63;1.80;;;26.40;39.30;;;;;;4989528;28;20432;-79
2023/06/26 11:29:05;;;;;;;8.63;2.00;;;26.50;38.80;;;;;;4986815;28;20034;-79
2023/06/26 11:31:32;;;;;;;6.15;1.70;;;26.10;39.00;;;;;;4991566;28;20473;-80
2023/06/26 11:34:00;;;;;;;5.53;1.75;;;25.00;39.60;;;;;;4989206;28;20030;-80
2023/06/26 11:36:27;;;;;;;6.93;2.28;;;25.30;40.50;;;;;;4987361;28;20121;-80
2023/06/26 11:38:59;;;;;;;5.97;1.75;;;25.90;40.20;;;;;;4997423;28;20022;-79
2023/06/26 11:41:28;;;;;;;3.65;1.45;;;26.60;38.10;;;;;;4993123;28;20438;-81
2023/06/26 11:43:54;;;;;;;11.95;1.90;;;26.30;36.30;;;;;;4994214;28;20109;-80
2023/06/26 11:46:21;;;;;;;4.50;1.48;;;26.00;36.50;;;;;;4985356;28;20034;-79
2023/06/26 11:48:48;;;;;;;9.68;2.33;;;26.40;36.80;;;;;;4990668;28;20041;-80
2023/06/26 11:51:17;;;;;;;5.45;2.05;;;26.40;36.30;;;;;;4988234;28;20034;-79
2023/06/26 11:53:44;;;;;;;5.95;1.65;;;26.40;37.60;;;;;;4987491;28;20029;-79
2023/06/26 11:56:11;;;;;;;6.30;1.80;;;25.90;36.60;;;;;;4985254;28;20052;-79
2023/06/26 11:58:56;;;;;;;8.73;2.10;;;25.70;38.60;;;;;;4988155;28;20184;-80
2023/06/26 12:01:22;;;;;;;11.20;2.30;;;25.30;40.20;;;;;;4987747;28;20053;-81
2023/06/26 12:03:49;;;;;;;6.40;2.08;;;24.80;42.10;;;;;;4995053;28;20026;-80
2023/06/26 12:06:15;;;;;;;7.13;1.88;;;24.70;42.30;;;;;;4996535;28;20106;-81
2023/06/26 12:08:41;;;;;;;7.03;2.00;;;24.90;41.20;;;;;;4997455;28;20057;-81
2023/06/26 12:11:07;;;;;;;4.88;1.58;;;25.10;40.00;;;;;;4992976;28;20053;-79
2023/06/26 12:13:34;;;;;;;4.72;1.52;;;25.60;38.80;;;;;;4986460;28;20065;-79
2023/06/26 12:15:59;;;;;;;4.85;1.80;;;26.00;37.90;;;;;;4982923;28;20149;-80
2023/06/26 12:18:26;;;;;;;8.63;2.75;;;25.90;38.80;;;;;;4991031;28;20185;-81
2023/06/26 12:20:52;;;;;;;8.80;2.50;;;25.40;39.50;;;;;;4990314;28;20073;-79
2023/06/26 12:23:19;;;;;;;7.35;2.05;;;24.90;41.10;;;;;;4988708;28;20018;-81
2023/06/26 12:25:47;;;;;;;8.20;2.00;;;24.90;42.20;;;;;;4988567;28;20030;-81
2023/06/26 12:28:19;;;;;;;8.52;2.40;;;24.70;42.30;;;;;;5002491;28;20053;-80
2023/06/26 12:31:20;;;;;;;8.15;2.20;;;24.60;41.40;;;;;;4985742;28;20030;-81
2023/06/26 12:33:46;;;;;;;7.38;2.05;;;24.40;42.90;;;;;;4955553;28;20031;-81
2023/06/26 12:36:15;;;;;;;5.05;2.00;;;24.60;43.00;;;;;;4967559;28;20665;-81
2023/06/26 12:38:41;;;;;;;6.25;1.95;;;25.10;41.90;;;;;;4968669;28;20732;-81
2023/06/26 12:41:17;;;;;;;7.45;2.20;;;25.30;42.40;;;;;;4968317;28;20034;-81
2023/06/26 12:43:43;;;;;;;5.18;1.88;;;26.00;41.60;;;;;;4968310;28;20449;-79
2023/06/26 12:46:09;;;;;;;7.35;2.08;;;25.80;41.00;;;;;;4971481;28;20515;-80